Time;durP1;ratioP1;P1;durP2;ratioP2;P2;SDS_P1;SDS_P2;PMS_P1;PMS_P2;Temp;Humidity;BMP_temperature;BMP_pressure;BME280_temperature;BME280_humidity;BME280_pressure;Samples;Min_cycle;Max_cycle;Signal;HPM_P1;HPM_P2
2021/10/28 00:14:05;;;;;;;4.07;2.38;;;27.60;59.50;;;;;;5051169;28;20024;-66
2021/10/28 00:16:36;;;;;;;3.35;1.58;;;28.10;58.10;;;;;;5050264;28;20032;-63
2021/10/28 00:19:05;;;;;;;4.15;1.55;;;28.60;57.00;;;;;;5051048;28;20024;-65
2021/10/28 00:21:36;;;;;;;3.47;2.13;;;29.40;55.20;;;;;;5050125;28;20483;-66
2021/10/28 00:24:06;;;;;;;8.23;2.88;;;29.80;52.20;;;;;;5050297;28;20456;-64
2021/10/28 00:26:35;;;;;;;5.65;2.17;;;29.70;48.40;;;;;;5050236;28;20082;-73
2021/10/28 00:29:06;;;;;;;3.88;2.70;;;29.20;49.10;;;;;;5050330;28;20025;-66
2021/10/28 00:31:35;;;;;;;3.33;1.77;;;28.80;47.80;;;;;;5049838;28;20676;-74
2021/10/28 00:34:03;;;;;;;5.03;1.75;;;28.80;48.00;;;;;;5050507;28;20403;-62
2021/10/28 00:36:31;;;;;;;2.97;1.40;;;28.70;46.20;;;;;;5050020;28;20032;-66
2021/10/28 00:38:58;;;;;;;2.20;1.33;;;28.60;45.40;;;;;;5049870;28;20031;-67
2021/10/28 00:41:26;;;;;;;3.38;1.83;;;28.60;46.00;;;;;;5050161;28;20025;-63
2021/10/28 00:43:56;;;;;;;1.98;1.55;;;28.90;46.90;;;;;;5050246;28;20044;-63
2021/10/28 00:46:29;;;;;;;2.72;1.80;;;29.40;47.20;;;;;;5050306;28;20037;-71
2021/10/28 00:48:56;;;;;;;4.85;2.17;;;29.90;48.70;;;;;;5050000;28;20021;-67
2021/10/28 00:51:25;;;;;;;5.22;1.95;;;30.60;47.10;;;;;;5049555;28;20040;-65
2021/10/28 00:53:55;;;;;;;2.33;1.70;;;31.30;47.30;;;;;;5051156;23;20063;-72
2021/10/28 00:56:23;;;;;;;3.88;1.77;;;31.30;44.90;;;;;;5039467;28;20116;-66
2021/10/28 00:58:51;;;;;;;5.00;1.98;;;31.20;46.90;;;;;;5039337;28;20036;-66
2021/10/28 01:01:19;;;;;;;3.72;2.00;;;31.50;44.10;;;;;;5039176;28;20021;-68
2021/10/28 01:03:46;;;;;;;5.03;1.73;;;31.50;44.00;;;;;;5038730;28;20070;-73
2021/10/28 01:06:14;;;;;;;3.13;1.23;;;31.20;43.70;;;;;;5040235;28;20108;-67
2021/10/28 01:08:43;;;;;;;4.68;1.70;;;31.20;43.50;;;;;;5038729;28;20067;-72
2021/10/28 01:11:12;;;;;;;6.00;1.30;;;31.10;41.20;;;;;;5039284;28;20024;-73
2021/10/28 01:13:39;;;;;;;7.75;1.60;;;30.80;40.90;;;;;;5039059;28;20029;-72
2021/10/28 01:16:08;;;;;;;2.97;1.63;;;30.50;42.00;;;;;;5038232;28;20487;-63
2021/10/28 01:18:38;;;;;;;4.75;1.75;;;30.40;41.40;;;;;;5038698;28;20021;-63
2021/10/28 01:21:08;;;;;;;6.88;1.52;;;30.60;40.00;;;;;;5038573;28;20360;-66
2021/10/28 01:23:38;;;;;;;8.02;1.80;;;31.00;39.60;;;;;;5039288;28;20427;-70
2021/10/28 01:26:08;;;;;;;3.40;1.50;;;31.50;39.40;;;;;;5039186;28;20048;-63
2021/10/28 01:28:38;;;;;;;3.60;1.45;;;31.90;36.50;;;;;;5037991;28;20056;-64
2021/10/28 01:31:08;;;;;;;4.43;1.30;;;31.70;37.00;;;;;;5037997;28;20043;-65
2021/10/28 01:33:40;;;;;;;3.10;1.10;;;31.80;37.90;;;;;;5038550;28;20041;-71
2021/10/28 01:36:10;;;;;;;3.65;1.30;;;31.70;35.50;;;;;;5038347;28;20030;-72
2021/10/28 01:38:38;;;;;;;4.68;2.60;;;32.00;34.60;;;;;;5038220;28;20033;-67
2021/10/28 01:41:06;;;;;;;8.55;3.63;;;32.20;35.20;;;;;;5038354;28;20479;-65
2021/10/28 01:43:35;;;;;;;4.13;1.70;;;32.20;38.70;;;;;;5038174;28;20029;-74
2021/10/28 01:46:02;;;;;;;2.20;1.58;;;32.60;37.20;;;;;;5037801;28;20405;-74
2021/10/28 01:48:29;;;;;;;2.67;1.42;;;32.60;36.60;;;;;;5034513;28;20029;-67
2021/10/28 01:50:57;;;;;;;4.32;1.13;;;32.80;34.80;;;;;;5036085;28;20492;-73
2021/10/28 01:53:25;;;;;;;3.95;1.02;;;33.20;34.10;;;;;;5035690;28;20101;-66
2021/10/28 01:55:52;;;;;;;2.35;1.15;;;33.40;32.30;;;;;;5035513;28;20166;-66
2021/10/28 01:58:22;;;;;;;3.88;1.30;;;33.40;32.10;;;;;;5034631;28;20121;-68
2021/10/28 02:00:51;;;;;;;2.40;0.98;;;33.80;31.50;;;;;;5033419;28;20201;-72
2021/10/28 02:03:19;;;;;;;1.48;0.93;;;33.90;31.30;;;;;;5034941;28;20136;-68
2021/10/28 02:05:47;;;;;;;2.03;0.90;;;34.00;30.80;;;;;;5034944;28;20029;-73
2021/10/28 02:08:15;;;;;;;3.65;0.90;;;34.60;28.60;;;;;;5036056;28;20151;-68
2021/10/28 02:10:43;;;;;;;5.05;1.30;;;34.80;28.00;;;;;;5038615;28;20024;-73
2021/10/28 02:13:11;;;;;;;4.85;1.02;;;35.00;27.60;;;;;;5036640;28;20029;-75
2021/10/28 02:15:38;;;;;;;5.00;1.73;;;35.10;28.10;;;;;;5037363;28;20070;-65
2021/10/28 02:18:05;;;;;;;3.42;1.40;;;35.10;28.30;;;;;;5036711;28;20029;-68
2021/10/28 02:20:32;;;;;;;3.13;1.23;;;35.00;29.10;;;;;;5038007;28;20368;-68
2021/10/28 02:22:59;;;;;;;3.40;1.33;;;34.90;27.90;;;;;;5037080;28;20033;-75
2021/10/28 02:25:26;;;;;;;4.35;1.13;;;34.60;29.10;;;;;;5038187;28;20021;-74
2021/10/28 02:27:53;;;;;;;4.63;1.05;;;34.30;29.30;;;;;;5035677;28;20427;-74
2021/10/28 02:30:20;;;;;;;2.67;1.38;;;34.40;28.30;;;;;;5036806;28;21013;-64
2021/10/28 02:32:47;;;;;;;5.95;2.00;;;34.40;29.90;;;;;;5037198;28;20449;-65
2021/10/28 02:35:15;;;;;;;5.28;2.45;;;34.50;29.90;;;;;;5036402;28;20067;-64
2021/10/28 02:37:43;;;;;;;4.10;1.85;;;34.80;29.70;;;;;;5038151;28;20033;-64
2021/10/28 02:40:11;;;;;;;6.40;2.00;;;34.90;30.00;;;;;;5037598;28;20014;-64
2021/10/28 02:42:39;;;;;;;3.78;2.08;;;35.20;29.10;;;;;;5036987;28;20487;-65
2021/10/28 02:45:07;;;;;;;4.65;1.40;;;35.40;30.20;;;;;;5037291;28;20086;-70
2021/10/28 02:47:34;;;;;;;3.05;1.15;;;35.60;28.30;;;;;;5037037;28;20025;-70
2021/10/28 02:50:01;;;;;;;3.25;0.98;;;35.80;29.10;;;;;;5035617;28;20074;-73
2021/10/28 02:52:28;;;;;;;4.15;1.05;;;35.80;28.40;;;;;;5037398;28;20155;-73
2021/10/28 02:54:56;;;;;;;4.88;2.10;;;35.80;28.40;;;;;;5037183;28;20087;-71
2021/10/28 02:57:23;;;;;;;3.08;1.20;;;35.90;29.70;;;;;;5036217;28;20025;-73
2021/10/28 02:59:50;;;;;;;5.53;1.20;;;35.70;28.90;;;;;;5037323;28;20083;-72
2021/10/28 03:02:17;;;;;;;7.75;1.45;;;35.30;28.80;;;;;;5037337;28;20022;-68
2021/10/28 03:04:44;;;;;;;5.63;1.45;;;35.30;28.20;;;;;;5036811;28;20025;-73
2021/10/28 03:07:11;;;;;;;2.08;0.95;;;35.80;28.40;;;;;;5037965;28;20037;-72
2021/10/28 03:09:38;;;;;;;3.08;1.00;;;36.30;29.30;;;;;;4340054;28;10000877;-68
2021/10/28 03:12:07;;;;;;;4.10;1.10;;;36.70;27.90;;;;;;5042381;28;20139;-72
2021/10/28 03:14:43;;;;;;;2.08;1.17;;;36.20;27.10;;;;;;5034082;28;20032;-68
2021/10/28 03:27:39;;;;;;;1.85;0.95;;;36.90;28.50;;;;;;5034905;28;20053;-68
2021/10/28 03:30:08;;;;;;;3.60;1.08;;;37.30;28.10;;;;;;5033051;28;20639;-71
2021/10/28 03:32:36;;;;;;;2.60;1.33;;;37.00;27.30;;;;;;5033416;28;20492;-72
2021/10/28 03:35:05;;;;;;;2.05;1.20;;;36.80;27.50;;;;;;5034495;28;20013;-69
2021/10/28 03:37:53;;;;;;;3.83;1.02;;;36.50;28.10;;;;;;5033194;28;20021;-68
2021/10/28 04:02:43;;;;;;;5.55;1.38;;;35.70;29.00;;;;;;5036797;28;20038;-73
2021/10/28 04:21:36;;;;;;;3.75;1.02;;;34.60;29.60;;;;;;5007133;28;20523;-73
2021/10/28 04:29:34;;;;;;;9.05;3.20;;;34.30;29.70;;;;;;5035844;28;20553;-73
2021/10/28 04:32:03;;;;;;;5.50;1.20;;;34.20;30.20;;;;;;5036257;28;20059;-72
2021/10/28 04:34:30;;;;;;;7.13;1.48;;;34.20;30.80;;;;;;5035318;28;20479;-74
2021/10/28 04:36:57;;;;;;;9.93;1.33;;;34.00;30.50;;;;;;5034969;28;20412;-73
2021/10/28 04:39:24;;;;;;;4.47;1.33;;;34.10;31.20;;;;;;5035874;28;20022;-71
2021/10/28 04:41:51;;;;;;;10.60;1.95;;;34.10;31.00;;;;;;5033913;28;20376;-67
2021/10/28 04:44:18;;;;;;;6.38;1.52;;;34.00;30.90;;;;;;5035995;28;20029;-71
2021/10/28 04:46:45;;;;;;;2.88;1.10;;;33.90;30.90;;;;;;5035791;28;20057;-74
2021/10/28 04:49:12;;;;;;;3.00;1.33;;;34.10;29.70;;;;;;5033692;28;20410;-76
2021/10/28 04:51:39;;;;;;;3.17;1.17;;;34.10;29.90;;;;;;5034557;28;20036;-74
2021/10/28 04:54:06;;;;;;;3.40;0.95;;;34.30;29.60;;;;;;5034177;28;20088;-72
2021/10/28 04:56:33;;;;;;;2.88;1.02;;;34.10;29.40;;;;;;5034093;28;20022;-67
2021/10/28 04:59:00;;;;;;;4.60;1.40;;;33.90;30.80;;;;;;5035045;28;20467;-68
2021/10/28 05:01:27;;;;;;;2.67;1.10;;;33.80;29.80;;;;;;5035762;28;20063;-71
2021/10/28 05:03:54;;;;;;;2.90;1.08;;;33.70;30.70;;;;;;5033884;28;20061;-69
2021/10/28 05:06:21;;;;;;;4.07;1.35;;;33.80;31.40;;;;;;5035935;28;20068;-69
2021/10/28 05:08:48;;;;;;;1.63;0.90;;;33.80;31.00;;;;;;5042316;28;20033;-70
2021/10/28 05:11:19;;;;;;;2.58;1.35;;;34.00;30.00;;;;;;5035427;28;20033;-69
2021/10/28 05:13:49;;;;;;;4.77;1.30;;;34.10;30.50;;;;;;5035332;28;20021;-69
2021/10/28 05:16:16;;;;;;;4.40;1.48;;;34.10;30.00;;;;;;5036116;28;20023;-69
2021/10/28 05:18:45;;;;;;;3.10;1.13;;;34.20;30.00;;;;;;5035227;28;20042;-71
2021/10/28 05:21:13;;;;;;;4.30;1.48;;;34.30;29.90;;;;;;5034341;28;20020;-69
2021/10/28 05:23:41;;;;;;;7.72;1.30;;;34.40;30.20;;;;;;5035559;28;20032;-72
2021/10/28 05:26:09;;;;;;;3.53;1.00;;;34.30;29.40;;;;;;5037151;28;20029;-72
2021/10/28 05:28:37;;;;;;;4.10;1.05;;;34.20;29.80;;;;;;5033980;28;20056;-70
2021/10/28 05:31:04;;;;;;;3.30;1.08;;;34.10;30.00;;;;;;5034045;28;20021;-71
2021/10/28 05:33:31;;;;;;;1.58;0.80;;;34.20;29.70;;;;;;5033438;28;20492;-73
2021/10/28 05:35:58;;;;;;;2.80;1.00;;;34.10;29.50;;;;;;5035113;28;20820;-69
2021/10/28 05:38:25;;;;;;;2.80;1.25;;;33.90;29.50;;;;;;5033766;28;20025;-72
2021/10/28 05:40:52;;;;;;;2.08;1.40;;;33.80;29.60;;;;;;5033193;28;20522;-69
2021/10/28 05:43:19;;;;;;;5.65;4.15;;;33.70;30.00;;;;;;5033482;28;20857;-69
2021/10/28 05:45:48;;;;;;;2.25;1.10;;;33.50;30.40;;;;;;5033215;28;20033;-71
2021/10/28 05:48:15;;;;;;;4.80;0.98;;;33.40;30.50;;;;;;5031903;28;20029;-68
2021/10/28 05:50:45;;;;;;;2.63;1.30;;;33.50;30.70;;;;;;5032343;28;20263;-71
2021/10/28 05:53:13;;;;;;;4.80;1.55;;;33.60;30.00;;;;;;5034114;28;20555;-67
2021/10/28 05:55:40;;;;;;;2.30;1.25;;;33.40;31.90;;;;;;5033495;28;20064;-68
2021/10/28 05:58:07;;;;;;;2.88;1.30;;;33.00;31.70;;;;;;5032944;28;20802;-69
2021/10/28 06:00:33;;;;;;;1.67;1.00;;;32.90;31.70;;;;;;5033902;28;20013;-68
2021/10/28 06:03:01;;;;;;;1.10;1.00;;;33.10;31.80;;;;;;5033327;28;20025;-68
2021/10/28 06:05:28;;;;;;;3.28;1.15;;;33.10;31.00;;;;;;5033896;28;20025;-73
2021/10/28 06:07:55;;;;;;;2.25;0.85;;;32.90;31.10;;;;;;5032599;28;20037;-74
2021/10/28 06:10:22;;;;;;;3.63;1.30;;;32.80;29.70;;;;;;5032932;28;20325;-69
2021/10/28 06:12:54;;;;;;;3.15;1.17;;;32.80;31.30;;;;;;5033584;28;20397;-69
2021/10/28 06:15:22;;;;;;;9.07;1.45;;;33.00;31.60;;;;;;5033753;28;20017;-67
2021/10/28 06:17:53;;;;;;;5.32;0.95;;;33.20;30.00;;;;;;5031426;28;20100;-71
2021/10/28 06:20:22;;;;;;;1.73;0.98;;;33.00;31.60;;;;;;5032898;28;20037;-69
2021/10/28 06:22:49;;;;;;;3.80;1.33;;;32.70;30.70;;;;;;5033931;28;20033;-73
2021/10/28 06:25:17;;;;;;;6.07;1.10;;;32.70;31.90;;;;;;5033509;28;20036;-68
2021/10/28 06:27:45;;;;;;;3.10;1.00;;;32.50;33.30;;;;;;5032244;28;20491;-68
2021/10/28 06:30:12;;;;;;;4.28;1.73;;;32.50;33.90;;;;;;5030456;28;20034;-69
2021/10/28 06:32:44;;;;;;;1.60;1.08;;;32.40;33.00;;;;;;5033404;28;20108;-68
2021/10/28 06:35:11;;;;;;;2.10;1.00;;;32.20;31.40;;;;;;5032820;28;20035;-72
2021/10/28 06:37:40;;;;;;;5.05;0.90;;;32.10;34.00;;;;;;5033395;28;20512;-73
2021/10/28 06:40:08;;;;;;;2.65;1.10;;;32.00;33.20;;;;;;5032598;28;20055;-69
2021/10/28 06:42:35;;;;;;;1.85;1.15;;;32.00;34.60;;;;;;5032194;28;20091;-70
2021/10/28 06:45:03;;;;;;;2.78;0.80;;;31.90;34.30;;;;;;5030711;28;20033;-68
2021/10/28 06:47:30;;;;;;;3.28;1.30;;;31.80;33.60;;;;;;5033090;28;20344;-71
2021/10/28 06:50:04;;;;;;;5.90;1.02;;;31.70;34.10;;;;;;5032483;28;20167;-69
2021/10/28 06:52:47;;;;;;;4.78;1.30;;;31.50;33.70;;;;;;5031819;28;20121;-67
2021/10/28 06:55:29;;;;;;;3.45;1.48;;;31.40;34.20;;;;;;5031572;28;20476;-67
2021/10/28 07:03:28;;;;;;;4.20;1.60;;;30.90;39.30;;;;;;5032386;28;20477;-72
2021/10/28 07:06:01;;;;;;;7.75;1.77;;;30.60;39.90;;;;;;5034014;28;20025;-72
2021/10/28 07:08:28;;;;;;;3.97;1.70;;;30.50;40.30;;;;;;5032292;28;20483;-69
2021/10/28 07:10:57;;;;;;;5.13;1.80;;;30.20;40.20;;;;;;5033010;28;20024;-72
2021/10/28 07:13:27;;;;;;;4.38;1.25;;;30.00;39.50;;;;;;5055903;28;20053;-70
2021/10/28 07:15:59;;;;;;;4.28;1.50;;;30.00;39.30;;;;;;5036873;28;20051;-68
2021/10/28 07:18:44;;;;;;;7.57;1.70;;;29.70;38.80;;;;;;5039063;28;20041;-69
2021/10/28 07:26:51;;;;;;;3.92;1.58;;;29.50;40.30;;;;;;5036798;28;20036;-70
2021/10/28 08:05:30;;;;;;;4.88;2.13;;;27.60;45.00;;;;;;5035074;28;20024;-70
2021/10/28 08:21:47;;;;;;;4.38;2.30;;;26.90;48.90;;;;;;5032849;28;20553;-69
2021/10/28 08:24:32;;;;;;;6.60;2.13;;;26.90;49.50;;;;;;5033973;28;20064;-68
2021/10/28 08:29:50;;;;;;;4.03;1.77;;;26.70;49.50;;;;;;5034851;28;20036;-68
2021/10/28 08:32:17;;;;;;;4.35;1.67;;;26.60;50.30;;;;;;5035661;28;20025;-69
2021/10/28 08:34:45;;;;;;;4.68;1.83;;;26.60;49.90;;;;;;5032292;28;20025;-70
2021/10/28 08:37:16;;;;;;;4.18;1.98;;;26.50;50.30;;;;;;5029743;28;20616;-68
2021/10/28 08:39:48;;;;;;;4.55;2.03;;;26.40;50.20;;;;;;5053970;28;20021;-67
2021/10/28 08:42:17;;;;;;;4.38;1.77;;;26.30;50.60;;;;;;5030841;28;20041;-67
2021/10/28 08:44:51;;;;;;;4.90;1.80;;;26.30;50.60;;;;;;5031101;28;20035;-67
2021/10/28 08:47:19;;;;;;;3.60;1.55;;;26.10;51.20;;;;;;5030699;28;20216;-69
2021/10/28 08:49:52;;;;;;;3.20;1.60;;;25.90;51.80;;;;;;5032216;28;20770;-68
2021/10/28 09:25:29;;;;;;;6.32;3.33;;;24.20;57.40;;;;;;5029099;28;20410;-69
2021/10/28 09:28:01;;;;;;;10.13;5.32;;;24.10;57.80;;;;;;5026859;28;20830;-67
2021/10/28 09:30:53;;;;;;;6.25;2.35;;;24.10;58.60;;;;;;5029381;28;20043;-70
2021/10/28 09:33:27;;;;;;;3.70;2.30;;;23.90;59.20;;;;;;5052694;28;20499;-67
2021/10/28 09:44:22;;;;;;;3.05;1.80;;;23.80;59.20;;;;;;5030549;28;20083;-68
2021/10/28 09:46:52;;;;;;;4.28;2.08;;;23.70;59.10;;;;;;5029185;28;20536;-74
2021/10/28 09:52:18;;;;;;;8.02;2.55;;;23.70;59.00;;;;;;5029917;28;20028;-70
2021/10/28 09:55:03;;;;;;;5.18;2.30;;;23.50;59.90;;;;;;5028937;28;20502;-68
2021/10/28 10:00:20;;;;;;;5.18;2.15;;;23.20;62.10;;;;;;5030077;28;20099;-74
2021/10/28 10:02:54;;;;;;;6.97;2.25;;;23.10;63.10;;;;;;5029896;28;20035;-68
2021/10/28 10:05:26;;;;;;;2.90;1.92;;;23.00;63.80;;;;;;5030456;28;20029;-73
2021/10/28 10:07:54;;;;;;;4.03;1.90;;;22.90;64.60;;;;;;5031137;28;20029;-69
2021/10/28 10:10:28;;;;;;;4.03;1.95;;;22.80;65.10;;;;;;5030009;28;20633;-69
2021/10/28 10:12:59;;;;;;;3.17;2.10;;;22.70;66.20;;;;;;5033187;28;20025;-69
2021/10/28 10:15:26;;;;;;;5.03;1.98;;;22.70;67.30;;;;;;5029361;28;20033;-68
2021/10/28 10:17:55;;;;;;;3.53;2.10;;;22.60;67.70;;;;;;5029949;28;20049;-68
2021/10/28 10:20:47;;;;;;;5.13;2.03;;;22.50;68.50;;;;;;5032311;28;20029;-70
2021/10/28 12:25:03;;;;;;;3.88;2.58;;;20.00;92.20;;;;;;5035691;28;20045;-71
2021/10/28 12:44:54;;;;;;;5.63;3.17;;;19.50;94.10;;;;;;5035940;28;20394;-75
2021/10/28 13:50:31;;;;;;;5.25;2.92;;;18.80;97.90;;;;;;5066052;28;20035;-75
2021/10/28 13:56:04;;;;;;;4.00;2.85;;;18.50;98.60;;;;;;5066426;28;20035;-69
2021/10/28 14:15:17;;;;;;;6.45;2.95;;;18.40;99.90;;;;;;5064748;28;20036;-76
2021/10/28 14:23:31;;;;;;;5.72;2.45;;;18.10;99.90;;;;;;5064911;28;20560;-69
2021/10/28 14:37:32;;;;;;;5.63;4.20;;;18.00;99.90;;;;;;5023307;28;20025;-70
2021/10/28 15:29:08;;;;;;;9.48;3.22;;;18.00;99.70;;;;;;5064597;28;20406;-69
2021/10/28 15:34:46;;;;;;;6.65;2.83;;;17.80;99.90;;;;;;5065379;28;20032;-78
2021/10/28 15:37:28;;;;;;;6.00;2.70;;;17.80;99.90;;;;;;5068890;28;20101;-78
2021/10/28 15:40:23;;;;;;;5.78;2.70;;;17.80;99.90;;;;;;5069832;28;20028;-69
2021/10/28 16:23:34;;;;;;;7.55;2.90;;;17.50;99.90;;;;;;5069212;28;20558;-76
2021/10/28 16:26:02;;;;;;;7.10;3.10;;;17.50;99.90;;;;;;5067415;28;20094;-77
2021/10/28 16:28:30;;;;;;;7.18;2.88;;;17.50;99.90;;;;;;5067111;28;20028;-69
2021/10/28 16:30:58;;;;;;;8.55;3.13;;;17.50;99.90;;;;;;5068741;28;20032;-77
2021/10/28 16:33:25;;;;;;;5.93;2.90;;;17.40;99.90;;;;;;5069242;28;20070;-69
2021/10/28 16:35:52;;;;;;;5.53;3.20;;;17.40;99.90;;;;;;5067644;28;20241;-72
2021/10/28 16:38:22;;;;;;;5.97;3.30;;;17.30;99.90;;;;;;5067771;28;20039;-72
2021/10/28 16:40:49;;;;;;;4.22;2.78;;;17.40;99.90;;;;;;5067874;28;20446;-73
2021/10/28 16:43:16;;;;;;;5.75;2.67;;;17.40;99.90;;;;;;5070289;28;20416;-71
2021/10/28 16:45:47;;;;;;;7.40;3.50;;;17.40;99.90;;;;;;5069837;28;20024;-72
2021/10/28 16:48:15;;;;;;;7.97;3.60;;;17.50;99.90;;;;;;5067424;28;20482;-73
2021/10/28 16:50:43;;;;;;;4.78;3.00;;;17.50;99.90;;;;;;5067911;28;20246;-70
2021/10/28 16:53:10;;;;;;;7.22;2.75;;;17.50;99.90;;;;;;5066862;28;20097;-72
2021/10/28 16:55:37;;;;;;;5.03;2.78;;;17.50;99.90;;;;;;5068205;28;20031;-74
2021/10/28 16:58:04;;;;;;;8.45;3.25;;;17.60;99.90;;;;;;5067585;28;20069;-72
2021/10/28 17:00:31;;;;;;;7.07;3.45;;;17.60;99.90;;;;;;5068510;28;20112;-72
2021/10/28 17:03:00;;;;;;;5.72;3.13;;;17.60;99.90;;;;;;5066048;28;20174;-70
2021/10/28 17:05:27;;;;;;;6.15;2.83;;;17.60;99.90;;;;;;5068666;28;20029;-70
2021/10/28 17:07:54;;;;;;;4.32;2.70;;;17.60;99.90;;;;;;5065785;28;20083;-70
2021/10/28 17:10:21;;;;;;;6.70;3.13;;;17.60;99.90;;;;;;5066033;28;20039;-75
2021/10/28 17:12:48;;;;;;;4.97;2.97;;;17.60;99.90;;;;;;5066957;28;20491;-71
2021/10/28 17:15:15;;;;;;;6.45;2.95;;;17.70;99.90;;;;;;5067153;28;20013;-71
2021/10/28 17:17:44;;;;;;;5.80;2.72;;;17.70;99.90;;;;;;5067613;28;20040;-70
2021/10/28 17:20:12;;;;;;;7.13;2.70;;;17.90;99.90;;;;;;5067483;28;20140;-69
2021/10/28 17:22:40;;;;;;;4.85;2.40;;;18.00;99.90;;;;;;5067997;28;20031;-69
2021/10/28 17:25:09;;;;;;;9.82;2.72;;;18.10;99.90;;;;;;5066652;28;20036;-75
2021/10/28 17:27:37;;;;;;;5.57;2.63;;;18.10;99.30;;;;;;5063615;28;20051;-73
2021/10/28 17:30:07;;;;;;;5.38;2.40;;;18.30;99.00;;;;;;5067654;28;20027;-69
2021/10/28 17:32:35;;;;;;;4.63;2.22;;;18.30;98.70;;;;;;5066555;28;20023;-74
2021/10/28 17:35:02;;;;;;;3.80;2.13;;;18.30;97.70;;;;;;5067074;28;20015;-71
2021/10/28 17:37:29;;;;;;;5.13;1.95;;;18.40;97.80;;;;;;5068316;28;20032;-68
2021/10/28 17:39:56;;;;;;;5.18;1.80;;;18.30;97.40;;;;;;5071146;28;20043;-78
2021/10/28 17:42:23;;;;;;;5.88;2.10;;;18.30;97.20;;;;;;5066792;28;20060;-69
2021/10/28 17:45:08;;;;;;;1.98;1.50;;;18.30;97.10;;;;;;5065503;28;20024;-70
2021/10/28 17:47:35;;;;;;;3.53;1.85;;;18.20;97.10;;;;;;5066733;28;20517;-76
2021/10/28 17:50:03;;;;;;;2.90;2.05;;;18.20;97.30;;;;;;5065317;28;20074;-75
2021/10/28 17:52:29;;;;;;;3.92;2.17;;;18.30;97.10;;;;;;5066655;28;20094;-67
2021/10/28 17:54:56;;;;;;;3.00;2.28;;;18.30;96.70;;;;;;5067159;28;20564;-73
2021/10/28 17:57:23;;;;;;;5.10;2.00;;;18.40;96.80;;;;;;5067112;28;20044;-67
2021/10/28 17:59:50;;;;;;;3.78;2.20;;;18.30;96.80;;;;;;5067433;28;20088;-74
2021/10/28 18:02:17;;;;;;;6.82;2.20;;;18.30;97.00;;;;;;5066165;28;20399;-72
2021/10/28 18:04:44;;;;;;;5.40;2.00;;;18.30;97.10;;;;;;5065657;28;20128;-70
2021/10/28 18:07:11;;;;;;;3.65;1.95;;;18.30;97.20;;;;;;5065405;28;20063;-67
2021/10/28 18:09:43;;;;;;;2.83;2.10;;;18.20;97.40;;;;;;5065717;28;20028;-72
2021/10/28 18:12:11;;;;;;;9.60;2.73;;;18.10;97.00;;;;;;5065032;28;20089;-70
2021/10/28 18:14:40;;;;;;;4.00;2.50;;;18.10;97.10;;;;;;5064709;28;20499;-69
2021/10/28 18:17:08;;;;;;;4.75;2.67;;;18.00;97.20;;;;;;5065146;28;20024;-70
2021/10/28 18:19:35;;;;;;;5.05;2.20;;;18.00;96.80;;;;;;5067471;28;20059;-78
2021/10/28 18:22:02;;;;;;;4.00;1.88;;;18.00;97.40;;;;;;5066385;28;20059;-76
2021/10/28 18:24:29;;;;;;;2.65;1.50;;;18.00;97.00;;;;;;5065967;28;20083;-70
2021/10/28 18:26:57;;;;;;;3.55;1.90;;;18.00;96.80;;;;;;5062621;28;20498;-69
2021/10/28 18:29:24;;;;;;;3.10;2.00;;;18.00;96.90;;;;;;5062796;28;20033;-70
2021/10/28 18:31:51;;;;;;;2.80;1.77;;;17.90;96.80;;;;;;5065902;28;20498;-68
2021/10/28 18:34:18;;;;;;;3.72;2.05;;;17.90;97.00;;;;;;5065184;28;20032;-70
2021/10/28 18:36:46;;;;;;;4.60;1.80;;;17.90;96.50;;;;;;5064136;28;20544;-68
2021/10/28 18:39:16;;;;;;;3.78;1.35;;;17.90;96.60;;;;;;5064453;28;20047;-71
2021/10/28 18:41:46;;;;;;;2.33;1.63;;;17.90;96.00;;;;;;5064061;28;20494;-71
2021/10/28 18:44:15;;;;;;;2.05;1.58;;;18.00;95.50;;;;;;5064712;28;20081;-71
2021/10/28 18:46:42;;;;;;;3.92;1.50;;;18.00;95.70;;;;;;5064403;28;20133;-74
2021/10/28 18:49:10;;;;;;;4.25;1.48;;;17.90;95.70;;;;;;5065584;28;20578;-71
2021/10/28 18:51:38;;;;;;;2.95;1.63;;;17.80;96.10;;;;;;5064869;28;20880;-69
2021/10/28 18:54:06;;;;;;;1.95;1.52;;;17.80;96.20;;;;;;5066435;28;20518;-69
2021/10/28 18:56:33;;;;;;;4.07;1.55;;;17.80;95.90;;;;;;5065112;28;20024;-71
2021/10/28 18:59:01;;;;;;;5.20;1.70;;;17.70;96.00;;;;;;5065386;28;20059;-71
2021/10/28 19:01:30;;;;;;;2.17;1.52;;;17.70;96.00;;;;;;5063900;28;20036;-71
2021/10/28 19:03:58;;;;;;;1.70;1.58;;;17.60;96.20;;;;;;5064490;28;20024;-72
2021/10/28 19:06:25;;;;;;;3.28;1.58;;;17.60;96.90;;;;;;5065860;28;20495;-71
2021/10/28 19:08:52;;;;;;;5.55;2.72;;;17.70;97.00;;;;;;5064387;28;20021;-68
2021/10/28 19:11:23;;;;;;;3.65;2.13;;;17.70;97.30;;;;;;5067378;28;20124;-68
2021/10/28 19:13:50;;;;;;;9.90;2.65;;;17.70;97.60;;;;;;5068701;28;20024;-70
2021/10/28 19:16:19;;;;;;;4.38;2.70;;;17.70;98.50;;;;;;5067747;28;20040;-75
2021/10/28 19:18:46;;;;;;;4.72;2.92;;;17.80;98.70;;;;;;5068483;28;20030;-75
2021/10/28 19:21:14;;;;;;;3.75;2.70;;;17.80;98.80;;;;;;5068924;28;20016;-73
2021/10/28 19:23:41;;;;;;;4.88;2.95;;;17.80;99.20;;;;;;5068686;28;20047;-70
2021/10/28 19:26:09;;;;;;;6.13;2.65;;;17.70;99.50;;;;;;5068952;28;20756;-72
2021/10/28 19:28:37;;;;;;;4.85;2.65;;;17.70;99.60;;;;;;5067501;28;20565;-71
2021/10/28 19:31:18;;;;;;;5.57;2.85;;;17.70;99.50;;;;;;5068520;28;20554;-71
2021/10/28 19:33:49;;;;;;;6.95;2.60;;;17.80;99.30;;;;;;5067799;28;20071;-71
2021/10/28 19:36:38;;;;;;;4.47;2.38;;;17.80;99.00;;;;;;5066483;28;21207;-71
2021/10/28 19:42:12;;;;;;;5.57;3.42;;;17.90;98.80;;;;;;5067175;28;20355;-68
2021/10/28 19:47:24;;;;;;;5.10;3.17;;;17.90;99.10;;;;;;5067511;28;20047;-70
2021/10/28 19:49:51;;;;;;;6.88;2.70;;;17.90;99.10;;;;;;5068484;28;20025;-71
2021/10/28 19:52:18;;;;;;;6.50;3.28;;;17.80;99.20;;;;;;5067945;28;20017;-68
2021/10/28 19:54:47;;;;;;;6.63;2.80;;;17.90;99.20;;;;;;5068002;28;20501;-71
2021/10/28 19:57:23;;;;;;;4.85;3.55;;;18.00;98.50;;;;;;5068456;28;20009;-68
2021/10/28 20:00:06;;;;;;;7.88;3.17;;;18.20;98.10;;;;;;5068097;28;20027;-70
2021/10/28 20:03:03;;;;;;;6.50;3.63;;;18.20;98.10;;;;;;5066410;28;20494;-76
2021/10/28 20:05:35;;;;;;;8.00;4.45;;;18.20;97.90;;;;;;5066970;28;20036;-70
2021/10/28 20:13:50;;;;;;;31.98;6.53;;;18.50;96.80;;;;;;5068394;28;20027;-70
2021/10/28 20:21:47;;;;;;;17.67;4.20;;;18.80;95.30;;;;;;5067886;28;20043;-75
2021/10/28 20:24:14;;;;;;;24.80;4.15;;;18.80;95.70;;;;;;5046612;28;20032;-70
2021/10/28 20:26:41;;;;;;;23.20;4.28;;;18.90;95.10;;;;;;5045026;28;20642;-69
2021/10/28 20:29:08;;;;;;;22.15;3.88;;;18.80;95.20;;;;;;5046087;28;20079;-72
2021/10/28 20:31:35;;;;;;;19.08;3.55;;;18.80;95.40;;;;;;5045164;28;20032;-71
2021/10/28 20:34:12;;;;;;;9.80;3.42;;;18.90;94.70;;;;;;5045540;28;20025;-67
2021/10/28 20:39:25;;;;;;;22.42;5.00;;;18.90;95.30;;;;;;5047611;28;20036;-72
2021/10/28 20:41:53;;;;;;;14.27;4.10;;;19.10;94.50;;;;;;5048582;28;20040;-73
2021/10/28 20:44:21;;;;;;;16.70;5.68;;;19.10;93.60;;;;;;5048061;28;20033;-73
2021/10/28 20:46:48;;;;;;;22.42;6.85;;;19.30;92.90;;;;;;5049324;28;20032;-71
2021/10/28 20:49:15;;;;;;;14.98;5.50;;;19.40;92.50;;;;;;5048839;28;20025;-68
2021/10/28 20:51:42;;;;;;;15.63;3.70;;;19.60;90.40;;;;;;5048566;28;20033;-70
2021/10/28 20:54:09;;;;;;;13.55;3.03;;;19.60;90.20;;;;;;5048000;28;20033;-71
2021/10/28 20:56:38;;;;;;;6.82;2.75;;;19.70;90.00;;;;;;5048635;28;20460;-69
2021/10/28 20:59:05;;;;;;;4.85;2.22;;;19.80;88.80;;;;;;5049123;28;20017;-73
2021/10/28 21:01:33;;;;;;;7.55;2.28;;;19.80;88.70;;;;;;5048372;28;20043;-68
2021/10/28 21:04:00;;;;;;;9.38;2.45;;;19.90;89.40;;;;;;5047030;28;20037;-75
2021/10/28 21:06:28;;;;;;;6.25;2.20;;;20.00;89.50;;;;;;5049561;28;20051;-70
2021/10/28 21:08:57;;;;;;;3.58;2.15;;;20.10;89.30;;;;;;5064723;28;20051;-68
2021/10/28 21:11:25;;;;;;;6.28;2.00;;;20.20;89.50;;;;;;5048863;28;20104;-72
2021/10/28 21:13:53;;;;;;;3.92;2.22;;;20.20;88.50;;;;;;5047415;28;20025;-72
2021/10/28 21:16:20;;;;;;;3.67;2.22;;;20.20;86.80;;;;;;5048382;28;20020;-71
2021/10/28 21:18:47;;;;;;;3.72;1.60;;;20.30;85.60;;;;;;5048968;28;20032;-71
2021/10/28 21:21:15;;;;;;;4.97;2.00;;;20.40;86.10;;;;;;5049075;28;20155;-73
2021/10/28 21:23:44;;;;;;;3.17;1.80;;;20.60;85.60;;;;;;5048752;28;20021;-68
2021/10/28 21:26:11;;;;;;;4.28;2.10;;;20.80;85.60;;;;;;5048690;28;20023;-69
2021/10/28 21:28:38;;;;;;;6.85;2.80;;;21.00;82.50;;;;;;5049767;28;20027;-68
2021/10/28 21:31:06;;;;;;;5.43;3.28;;;21.20;81.40;;;;;;5048378;28;20029;-68
2021/10/28 21:33:33;;;;;;;8.25;4.53;;;21.50;80.60;;;;;;5047511;28;20031;-71
2021/10/28 21:36:00;;;;;;;7.00;2.40;;;21.70;78.60;;;;;;5047413;28;20025;-69
2021/10/28 21:38:27;;;;;;;4.93;1.90;;;21.90;73.30;;;;;;5046946;28;20096;-72
2021/10/28 21:40:54;;;;;;;5.55;1.60;;;22.00;73.90;;;;;;5046706;28;20384;-70
2021/10/28 21:43:22;;;;;;;4.88;1.83;;;22.10;72.50;;;;;;5050474;28;20060;-73
2021/10/28 21:45:51;;;;;;;2.83;1.83;;;22.20;72.00;;;;;;5045461;28;20032;-68